Nearby METAR Reports

 

KPMD - Palmdale, California, USA
Distance from station: NNE 12mi, 19km
Updated: Fri, 13-Dec-2019 3:53pm PST
Clear
Clear
 Wind from W
Wind: W 28 mph , 44 km/h
Temperature: 66°F , 19°C
Dew Point: 34°F , 1°C
Humidity: 30%
Barometer: 30.07 inHg , 1018.3 hPa
Clouds: Clear
Visibility: 10 miles , 16 km
2019/12/13 23:53 KPMD 132353Z 28024KT 10SM CLR 19/01 A3007 RMK AO2 PK WND 28030/2338 SLP173 T01940011 10239 20156 55005
KWJF - Lancaster/Fox, California, USA
Distance from station: N 17mi, 27km
Updated: Fri, 13-Dec-2019 3:56pm PST
Clear
Clear
 Wind from W
Wind: W 21 mph , 33 km/h
Temperature: 64°F , 18°C
Dew Point: 43°F , 6°C
Humidity: 46%
Barometer: 30.07 inHg , 1018.3 hPa
Clouds: Clear
Visibility: 10 miles , 16 km
2019/12/13 23:56 KWJF 132356Z 27018KT 10SM CLR 18/06 A3007 RMK AO2 SLP182 T01830061 10239 20150 55000
 
KMWS - Mount Wilson, California, USA
Distance from station: SSE 18mi, 30km
Updated: Wed, 13-May-2015 6:45am PDT
NOT Current

 Wind from S
Wind: S 3 mph , 6 km/h, Gust: 5 mph , 7 km/h
Temperature: 43°F , 6°C
Dew Point: -0°F , -18°C
Humidity: 16%
2015/05/13 13:45 KMWS 131345Z 18003G04KT 06/M18 RMK SNOW DEPTH 1.00
KWHP - La / Whiteman, California, USA
Distance from station: SW 21mi, 34km
Updated: Fri, 13-Dec-2019 3:55pm PST
Clear
Clear
 Wind from calm
Wind: Calm
Temperature: 66°F , 19°C
Dew Point: 50°F , 10°C
Humidity: 56%
Barometer: 30.07 inHg , 1018.3 hPa
Clouds: Clear
Visibility: 10 miles , 16 km
2019/12/13 23:55 KWHP 132355Z 00000KT 10SM SKC 19/10 A3007
 
KBUR - Burbank, California, USA
Distance from station: SSW 22mi, 35km
Updated: Fri, 13-Dec-2019 3:53pm PST
Clear
Clear
 Wind from S
Wind: S 7 mph , 11 km/h
Temperature: 64°F , 18°C
Dew Point: 52°F , 11°C
Humidity: 64%
Barometer: 30.03 inHg , 1016.9 hPa
Clouds: Clear
Visibility: 7 miles , 11 km
2019/12/13 23:53 KBUR 132353Z 18006KT 7SM CLR 18/11 A3003 RMK AO2 SLP161 T01830106 10217 20167 56011
KVNY - Van Nuys, California, USA
Distance from station: SW 25mi, 40km
Updated: Fri, 13-Dec-2019 3:51pm PST
Clear
Clear
 Wind from SSE
Wind: SSE 8 mph , 13 km/h
Temperature: 68°F , 20°C
Dew Point: 52°F , 11°C
Humidity: 56%
Barometer: 30.02 inHg , 1016.6 hPa
Clouds: Clear
Visibility: 9 miles , 14 km
2019/12/13 23:51 KVNY 132351Z 15007KT 9SM CLR 20/11 A3002 RMK AO2 SLP162 T02000111 10228 20183 56012
 
KEDW - Edwards Afb, California, USA
Distance from station: NNE 33mi, 53km
Updated: Fri, 13-Dec-2019 3:58pm PST
Mostly cloudy
Mostly cloudy
 Wind from WNW
Wind: WNW 22 mph , 35 km/h
Temperature: 66°F , 19°C
Dew Point: 39°F , 4°C
Humidity: 37%
Barometer: 30.02 inHg , 1016.6 hPa
Clouds: Mostly cloudy
Visibility: 90 miles , 144 km
Cloud details: Few Clouds 15000 ft
Mostly cloudy 30000 ft
2019/12/13 23:58 KEDW 132358Z 30019KT 90SM FEW150 BKN300 19/04 A3002 RMK AO2A PK WND 29027/13 SLP160 T01940039 10224 20097 56010
KSMO - Santa Monica, California, USA
Distance from station: SSW 35mi, 57km
Updated: Fri, 13-Dec-2019 3:51pm PST
Mist, Overcast
Mist, Overcast
 Wind from SW
Wind: SW 7 mph , 11 km/h
Temperature: 61°F , 16°C
Dew Point: 55°F , 13°C
Humidity: 83%
Barometer: 30.06 inHg , 1017.9 hPa
Summary: Mist
Clouds: Overcast
Visibility: 6 miles , 10 km
Cloud details: Overcast 500 ft
2019/12/13 23:51 KSMO 132351Z 23006KT 6SM BR OVC005 16/13 A3006 RMK AO2 SLP177 T01560133 10178 20150 56008
 
KLAX - Los Angeles, California, USA
Distance from station: SSW 39mi, 63km
Updated: Fri, 13-Dec-2019 3:53pm PST
Haze, Overcast
Haze, Overcast
 Wind from W
Wind: W 8 mph , 13 km/h
Temperature: 61°F , 16°C
Dew Point: 55°F , 13°C
Humidity: 83%
Barometer: 30.05 inHg , 1017.6 hPa
Summary: Haze
Clouds: Overcast
Visibility: 6 miles , 10 km
Cloud details: Overcast 600 ft
2019/12/13 23:53 KLAX 132353Z 28007KT 6SM HZ OVC006 16/13 A3005 RMK AO2 SLP176 T01610133 10183 20161 56009
KMHV - Mojave, California, USA
Distance from station: N 41mi, 66km
Updated: Fri, 13-Dec-2019 4:00pm PST
Clear
Clear
 Wind from W
Wind: W 18 mph , 30 km/h, Gust: 28 mph , 44 km/h
Temperature: 63°F , 17°C
Dew Point: 41°F , 5°C
Humidity: 45%
Barometer: 30.07 inHg , 1018.3 hPa
Clouds: Clear
Visibility: 10 miles , 16 km
2019/12/14 00:00 KMHV 140000Z AUTO 28016G24KT 10SM CLR 17/05 A3007 RMK A01
 
KFUL - Fullerton, California, USA
Distance from station: SSE 44mi, 70km
Updated: Fri, 13-Dec-2019 3:53pm PST
Haze, Clear
Haze, Clear
 Wind from S
Wind: S 6 mph , 9 km/h
Temperature: 64°F , 18°C
Dew Point: 55°F , 13°C
Humidity: 73%
Barometer: 30.04 inHg , 1017.3 hPa
Summary: Haze
Clouds: Clear
Visibility: 4 miles , 6 km
2019/12/13 23:53 KFUL 132353Z 18005KT 4SM HZ CLR 18/13 A3004 RMK AO2 SLP169 T01830133 10211 20161 56010
KONT - Ontario, California, USA
Distance from station: SE 45mi, 72km
Updated: Fri, 13-Dec-2019 3:53pm PST
Haze, Few clouds
Haze, Few clouds
 Wind from SW
Wind: SW 9 mph , 15 km/h
Temperature: 70°F , 21°C
Dew Point: 52°F , 11°C
Humidity: 53%
Barometer: 30.04 inHg , 1017.3 hPa
Summary: Haze
Clouds: Few Clouds
Visibility: 6 miles , 10 km
Cloud details: Few Clouds 25000 ft
2019/12/13 23:53 KONT 132353Z 22008KT 6SM HZ FEW250 21/11 A3004 RMK AO2 SLP165 T02060111 10233 20172 56008
 
KLGB - Long Beach, California, USA
Distance from station: S 46mi, 74km
Updated: Fri, 13-Dec-2019 3:53pm PST
Haze, Clear
Haze, Clear
 Wind from WNW
Wind: WNW 9 mph , 15 km/h
Temperature: 63°F , 17°C
Dew Point: 55°F , 13°C
Humidity: 77%
Barometer: 30.05 inHg , 1017.6 hPa
Summary: Haze
Clouds: Clear
Visibility: 6 miles , 10 km
2019/12/13 23:53 KLGB 132353Z 30008KT 6SM HZ CLR 17/13 A3005 RMK AO2 SLP174 T01720133 10189 20128 55009
KVCV - Victorville, California, USA
Distance from station: E 46mi, 74km
Updated: Fri, 13-Dec-2019 3:45pm PST
Clear
Clear
 Wind from W
Wind: W 15 mph , 24 km/h
Barometer: 30.07 inHg , 1018.3 hPa
Clouds: Clear
Visibility: 10 miles , 16 km
2019/12/13 23:45 KVCV 132345Z 27013KT 10SM SKC A3007
 
KTSP - Tehachapi, California, USA
Distance from station: NNW 48mi, 77km
Updated: Fri, 13-Dec-2019 4:35pm PST
Mist, Overcast
Mist, Overcast
 Wind from NW
Wind: NW 16 mph , 26 km/h, Gust: 22 mph , 35 km/h
Temperature: 48°F , 9°C
Wind Chill: 42°F , 6°C
Dew Point: 48°F , 9°C
Humidity: 100%
Barometer: 30.14 inHg , 1020.7 hPa
Summary: Mist
Clouds: Overcast
Visibility: 3 miles , 5 km
Cloud details: Overcast 400 ft
2019/12/14 00:35 KTSP 140035Z AUTO 31014G19KT 3SM BR OVC004 09/09 A3014 RMK AO2